Webcam Castelli Romani more information Webcam Castelli Romani


Webcam Traffico live more information Webcam Traffico live


altri nostri siti meteo:

Rischio IncendiRischio Incendi

Meteo-CloudBanner Meteo-Cloud

Pomeziameteo 1Sito sul meteo

Pomeziameteo DashboardSito sul meteo

Caput FrigorisSito sul meteo

BarcellonameteoSito sul meteo

MeteoipassiSito sul meteo

ViterbometeoSito sul meteo

TortoretometeolidoSito sul meteo

MeteospinacetoSito sul meteo

MeteoardeaSito sul meteo

MeteopalestrinaSito sul meteo

MeteocastelliSito sul meteo

MeteoiserniaSito sul meteo

RomaeurmeteoSito sul meteo

MeteomarconiaSito sul meteo

CastelnuovovomanometeoSito sul meteo

MeteogonzagaSito sul meteo

MeteonetworkInvio dai a Meteonetwork

Rete Linea MeteoInvio dai a Meteonetwork

DesotermicaBanner Desotermica



Non è richiesta alcuna attenzione speciale.    Non sono presenti avvisi meteorologici di particolare rilevanza

Report METAR

   
LIRE - Pratica Di Mare(, Italy
Distanza dalla stazione: W 9 km
Dati ricevuti: 17-10-2019 23:55
Sereno  
Sereno  
   Vento: NE 11.1 km/h
Vento: NE 11.1 km/h
Temperatura: 16°C
P.to Rugiada: 14°C
Umidita: 88%
Barometro: 1019 hPa
Visibilita: oltre 10 km
dettagli cloud: Sereno
LIRE 172155Z 03006KT CAVOK 16/14 Q1019
LIRA - Ciampino(It-Afb/, Italy
Distanza dalla stazione: NE 16 km
Dati ricevuti: 18-10-2019 00:50
Sereno  
Sereno  
   Vento: Oriente 9.3 km/h
Vento: Oriente 9.3 km/h
Temperatura: 14°C
P.to Rugiada: 11°C
Umidita: 82%
Barometro: 1020 hPa
Visibilita: oltre 10 km
dettagli cloud: Sereno
LIRA 172250Z 10005KT CAVOK 14/11 Q1020
LIRF - Rome/Fiumicino, Italy
Distanza dalla stazione: W 27 km
Dati ricevuti: 18-10-2019 00:50
Sereno  
Sereno  
   Vento: NE 5.6 km/h
Vento: NE 5.6 km/h
Temperatura: 13°C
P.to Rugiada: 12°C
Umidita: 94%
Barometro: 1020 hPa
Visibilita: oltre 10 km
dettagli cloud: Sereno
LIRF 172250Z 07003KT CAVOK 13/12 Q1020 NOSIG
LIRU - Rome/Urbe (it-Af, Italy
Distanza dalla stazione: N 31 km
Dati ricevuti: 17-10-2019 19:50
DATI Obsoleti
Sereno  
Sereno  
   Vento: Variabile 1.9 km/h
Vento: Variabile 1.9 km/h
Temperatura: 17°C
P.to Rugiada: 12°C
Umidita: 73%
Barometro: 1019 hPa
Visibilita: oltre 10 km
dettagli cloud: Sereno
LIRU 171750Z VRB01KT CAVOK 17/12 Q1019
LIRL - Latina (it-Afb), Italy
Distanza dalla stazione: SE 36 km
Dati ricevuti: 17-10-2019 19:55
DATI Obsoleti
Sereno  
Sereno  
   Vento: calma
Vento: calma
Temperatura: 18°C
P.to Rugiada: 16°C
Umidita: 88%
Barometro: 1019 hPa
Visibilita: oltre 10 km
dettagli cloud: Sereno
LIRL 171755Z 00000KT CAVOK 18/16 Q1019
LIRG - Guidonia (it-Afb, Italy
Distanza dalla stazione: NE 41 km
Dati ricevuti: 17-10-2019 19:55
DATI Obsoleti
Sereno  
Sereno  
   Vento: Variabile 7.4 km/h
Vento: Variabile 7.4 km/h
Temperatura: 15°C
P.to Rugiada: 9°C
Umidita: 68%
Barometro: 1020 hPa
Visibilita: oltre 10 km
dettagli cloud: Sereno
LIRG 171755Z VRB04KT CAVOK 15/09 Q1020

Script sviluppato da  Saratoga-weather.org Adattato per il modello da  Weerstation Leuven

Potete trovare le nostre info meteo anche a:

European Weather Network

Weather Underground

AWEKAS

Citizen Weather Observer Program (CWOP)

HAMweather, WeatherForYou, PWS Weather

Strumentazione usata:

Stazione meteo
Davis VP2

Programma gestore dati meteo
WVIEW

Server per i dati meteo
Pc-WDS5

Provider
PC-HP-6005

Davis VP2

WVIEW

Pc-WDS5

PC-HP-6005